Terminal Aerodrome Forecast
Issued by NWS Charleston, SC

Home | Current Version | Previous Version | Text Only | Print | Product List | Glossary On
Versions: 1 2 3 4 5 6 7 8 9 10 11 12 13 14 15 16 17 18 19 20 21 22 23 24 25
000
FTUS42 KCHS 241732
TAFCHS
TAF
KCHS 241732Z 2418/2518 19013G22KT 3SM TSRA FEW015 SCT025 BKN030CB
      TEMPO 2418/2422 20019G26KT 3/4SM +TSRA SCT010 OVC015CB
     FM242200 19012G20KT 3SM -TSRA OVC025CB
     FM250200 20010G22KT 6SM SHRA VCTS OVC070CB
     FM250500 23011G19KT P6SM BKN080
     FM250800 24010G17KT P6SM SCT200=

USA.gov is the U.S. government's official web portal to all federal, state and local government web resources and services.